sensor_id;sensor_type;location;lat;lon;timestamp;P1;durP1;ratioP1;P2;durP2;ratioP2
69087;SDS011;56190;43.562;5.036;2023-06-24T00:00:55;5.43;;;2.72;;
69087;SDS011;56190;43.562;5.036;2023-06-24T00:03:20;2.97;;;2.67;;
69087;SDS011;56190;43.562;5.036;2023-06-24T00:05:45;3.75;;;2.50;;
69087;SDS011;56190;43.562;5.036;2023-06-24T00:08:14;4.03;;;2.90;;
69087;SDS011;56190;43.562;5.036;2023-06-24T00:10:39;7.85;;;2.85;;
69087;SDS011;56190;43.562;5.036;2023-06-24T00:13:04;4.05;;;2.65;;
69087;SDS011;56190;43.562;5.036;2023-06-24T00:15:30;4.32;;;2.80;;
69087;SDS011;56190;43.562;5.036;2023-06-24T00:17:55;4.28;;;2.42;;
69087;SDS011;56190;43.562;5.036;2023-06-24T00:20:29;3.60;;;2.90;;
69087;SDS011;56190;43.562;5.036;2023-06-24T00:22:55;3.20;;;2.58;;
69087;SDS011;56190;43.562;5.036;2023-06-24T00:25:20;4.15;;;2.90;;
69087;SDS011;56190;43.562;5.036;2023-06-24T00:27:45;3.70;;;2.60;;
69087;SDS011;56190;43.562;5.036;2023-06-24T00:30:10;3.95;;;2.40;;
69087;SDS011;56190;43.562;5.036;2023-06-24T00:32:36;4.07;;;2.63;;
69087;SDS011;56190;43.562;5.036;2023-06-24T00:35:01;3.63;;;2.80;;
69087;SDS011;56190;43.562;5.036;2023-06-24T00:37:26;3.42;;;2.95;;
69087;SDS011;56190;43.562;5.036;2023-06-24T00:39:52;4.88;;;2.20;;
69087;SDS011;56190;43.562;5.036;2023-06-24T00:42:17;3.30;;;2.35;;
69087;SDS011;56190;43.562;5.036;2023-06-24T00:44:43;3.75;;;2.60;;
69087;SDS011;56190;43.562;5.036;2023-06-24T00:47:08;3.35;;;2.42;;
69087;SDS011;56190;43.562;5.036;2023-06-24T00:49:35;2.83;;;2.28;;
69087;SDS011;56190;43.562;5.036;2023-06-24T00:52:00;4.60;;;2.58;;
69087;SDS011;56190;43.562;5.036;2023-06-24T00:54:26;4.60;;;2.40;;
69087;SDS011;56190;43.562;5.036;2023-06-24T00:56:56;3.17;;;2.50;;
69087;SDS011;56190;43.562;5.036;2023-06-24T00:59:21;3.97;;;2.22;;
69087;SDS011;56190;43.562;5.036;2023-06-24T01:01:46;5.03;;;2.92;;
69087;SDS011;56190;43.562;5.036;2023-06-24T01:04:11;5.25;;;2.80;;
69087;SDS011;56190;43.562;5.036;2023-06-24T01:06:37;3.58;;;2.67;;
69087;SDS011;56190;43.562;5.036;2023-06-24T01:09:08;4.63;;;2.90;;
69087;SDS011;56190;43.562;5.036;2023-06-24T01:11:34;3.92;;;2.38;;
69087;SDS011;56190;43.562;5.036;2023-06-24T01:13:59;6.57;;;2.65;;
69087;SDS011;56190;43.562;5.036;2023-06-24T01:18:57;3.23;;;2.33;;
69087;SDS011;56190;43.562;5.036;2023-06-24T01:21:34;3.88;;;2.80;;
69087;SDS011;56190;43.562;5.036;2023-06-24T01:29:05;3.85;;;2.83;;
69087;SDS011;56190;43.562;5.036;2023-06-24T01:36:50;4.25;;;2.72;;
69087;SDS011;56190;43.562;5.036;2023-06-24T01:39:19;3.33;;;2.53;;
69087;SDS011;56190;43.562;5.036;2023-06-24T01:41:47;12.10;;;2.97;;
69087;SDS011;56190;43.562;5.036;2023-06-24T01:44:14;4.03;;;2.47;;
69087;SDS011;56190;43.562;5.036;2023-06-24T01:46:40;3.30;;;2.60;;
69087;SDS011;56190;43.562;5.036;2023-06-24T01:49:07;3.00;;;2.33;;
69087;SDS011;56190;43.562;5.036;2023-06-24T01:51:32;3.03;;;2.70;;
69087;SDS011;56190;43.562;5.036;2023-06-24T01:54:01;4.55;;;2.80;;
69087;SDS011;56190;43.562;5.036;2023-06-24T01:56:27;2.78;;;2.50;;
69087;SDS011;56190;43.562;5.036;2023-06-24T01:58:54;4.18;;;2.97;;
69087;SDS011;56190;43.562;5.036;2023-06-24T02:01:20;4.35;;;2.58;;
69087;SDS011;56190;43.562;5.036;2023-06-24T02:03:46;4.00;;;2.30;;
69087;SDS011;56190;43.562;5.036;2023-06-24T02:06:12;4.35;;;2.60;;
69087;SDS011;56190;43.562;5.036;2023-06-24T02:08:38;3.45;;;2.78;;
69087;SDS011;56190;43.562;5.036;2023-06-24T02:11:04;5.03;;;2.85;;
69087;SDS011;56190;43.562;5.036;2023-06-24T02:13:31;4.32;;;3.08;;
69087;SDS011;56190;43.562;5.036;2023-06-24T02:16:00;2.97;;;2.60;;
69087;SDS011;56190;43.562;5.036;2023-06-24T02:18:28;5.80;;;2.70;;
69087;SDS011;56190;43.562;5.036;2023-06-24T02:20:53;2.92;;;2.60;;
69087;SDS011;56190;43.562;5.036;2023-06-24T02:23:19;3.15;;;2.60;;
69087;SDS011;56190;43.562;5.036;2023-06-24T02:25:45;3.42;;;2.65;;
69087;SDS011;56190;43.562;5.036;2023-06-24T02:28:10;4.32;;;2.85;;
69087;SDS011;56190;43.562;5.036;2023-06-24T02:30:37;4.28;;;2.60;;
69087;SDS011;56190;43.562;5.036;2023-06-24T02:33:02;3.30;;;2.70;;
69087;SDS011;56190;43.562;5.036;2023-06-24T02:35:28;5.22;;;2.92;;
69087;SDS011;56190;43.562;5.036;2023-06-24T02:37:53;4.43;;;2.90;;
69087;SDS011;56190;43.562;5.036;2023-06-24T02:40:18;4.00;;;2.85;;
69087;SDS011;56190;43.562;5.036;2023-06-24T02:42:44;3.78;;;2.92;;
69087;SDS011;56190;43.562;5.036;2023-06-24T02:45:09;3.75;;;2.50;;
69087;SDS011;56190;43.562;5.036;2023-06-24T02:47:35;3.63;;;2.50;;
69087;SDS011;56190;43.562;5.036;2023-06-24T02:50:01;3.75;;;2.95;;
69087;SDS011;56190;43.562;5.036;2023-06-24T02:52:27;4.38;;;2.90;;
69087;SDS011;56190;43.562;5.036;2023-06-24T02:54:54;4.30;;;2.53;;
69087;SDS011;56190;43.562;5.036;2023-06-24T02:57:20;3.10;;;2.80;;
69087;SDS011;56190;43.562;5.036;2023-06-24T02:59:45;2.92;;;2.63;;
69087;SDS011;56190;43.562;5.036;2023-06-24T03:02:11;3.92;;;2.88;;
69087;SDS011;56190;43.562;5.036;2023-06-24T03:04:37;2.83;;;2.60;;
69087;SDS011;56190;43.562;5.036;2023-06-24T03:07:03;2.75;;;2.55;;
69087;SDS011;56190;43.562;5.036;2023-06-24T03:09:29;3.85;;;2.90;;
69087;SDS011;56190;43.562;5.036;2023-06-24T03:11:55;4.28;;;2.88;;
69087;SDS011;56190;43.562;5.036;2023-06-24T03:14:20;4.07;;;2.80;;
69087;SDS011;56190;43.562;5.036;2023-06-24T03:16:45;4.05;;;2.70;;
69087;SDS011;56190;43.562;5.036;2023-06-24T03:19:11;4.03;;;2.67;;
69087;SDS011;56190;43.562;5.036;2023-06-24T03:21:36;2.67;;;2.40;;
69087;SDS011;56190;43.562;5.036;2023-06-24T03:24:01;3.60;;;2.58;;
69087;SDS011;56190;43.562;5.036;2023-06-24T03:26:36;4.35;;;2.63;;
69087;SDS011;56190;43.562;5.036;2023-06-24T03:29:01;3.95;;;2.63;;
69087;SDS011;56190;43.562;5.036;2023-06-24T03:31:27;4.50;;;2.90;;
69087;SDS011;56190;43.562;5.036;2023-06-24T03:33:52;3.65;;;2.80;;
69087;SDS011;56190;43.562;5.036;2023-06-24T03:36:17;3.22;;;2.75;;
69087;SDS011;56190;43.562;5.036;2023-06-24T03:38:43;3.42;;;2.78;;
69087;SDS011;56190;43.562;5.036;2023-06-24T03:41:08;3.15;;;2.67;;
69087;SDS011;56190;43.562;5.036;2023-06-24T03:43:33;7.10;;;2.83;;
69087;SDS011;56190;43.562;5.036;2023-06-24T03:45:58;3.00;;;2.67;;
69087;SDS011;56190;43.562;5.036;2023-06-24T03:48:25;3.95;;;2.85;;
69087;SDS011;56190;43.562;5.036;2023-06-24T03:50:50;2.83;;;2.55;;
69087;SDS011;56190;43.562;5.036;2023-06-24T03:53:16;4.38;;;2.65;;
69087;SDS011;56190;43.562;5.036;2023-06-24T03:55:41;4.50;;;2.60;;
69087;SDS011;56190;43.562;5.036;2023-06-24T03:58:06;3.35;;;2.42;;
69087;SDS011;56190;43.562;5.036;2023-06-24T04:00:33;3.85;;;2.85;;
69087;SDS011;56190;43.562;5.036;2023-06-24T04:02:58;3.88;;;2.67;;
69087;SDS011;56190;43.562;5.036;2023-06-24T04:05:26;3.63;;;2.55;;
69087;SDS011;56190;43.562;5.036;2023-06-24T04:07:51;6.25;;;3.03;;
69087;SDS011;56190;43.562;5.036;2023-06-24T04:10:17;3.10;;;2.80;;
69087;SDS011;56190;43.562;5.036;2023-06-24T04:12:43;3.40;;;2.78;;
69087;SDS011;56190;43.562;5.036;2023-06-24T04:15:08;3.60;;;2.67;;
69087;SDS011;56190;43.562;5.036;2023-06-24T04:17:33;4.13;;;2.58;;
69087;SDS011;56190;43.562;5.036;2023-06-24T04:19:59;5.20;;;2.60;;
69087;SDS011;56190;43.562;5.036;2023-06-24T04:22:25;4.05;;;2.92;;
69087;SDS011;56190;43.562;5.036;2023-06-24T04:24:50;3.42;;;3.00;;
69087;SDS011;56190;43.562;5.036;2023-06-24T04:27:15;3.65;;;2.63;;
69087;SDS011;56190;43.562;5.036;2023-06-24T04:29:41;4.60;;;2.90;;
69087;SDS011;56190;43.562;5.036;2023-06-24T04:32:06;4.47;;;2.80;;
69087;SDS011;56190;43.562;5.036;2023-06-24T04:34:31;3.88;;;3.10;;
69087;SDS011;56190;43.562;5.036;2023-06-24T04:36:57;3.60;;;2.58;;
69087;SDS011;56190;43.562;5.036;2023-06-24T04:39:23;3.30;;;2.50;;
69087;SDS011;56190;43.562;5.036;2023-06-24T04:41:48;3.40;;;2.90;;
69087;SDS011;56190;43.562;5.036;2023-06-24T04:44:13;3.17;;;2.60;;
69087;SDS011;56190;43.562;5.036;2023-06-24T04:46:38;3.42;;;2.92;;
69087;SDS011;56190;43.562;5.036;2023-06-24T04:49:05;3.03;;;2.72;;
69087;SDS011;56190;43.562;5.036;2023-06-24T04:51:30;3.90;;;2.58;;
69087;SDS011;56190;43.562;5.036;2023-06-24T04:53:55;3.72;;;2.78;;
69087;SDS011;56190;43.562;5.036;2023-06-24T04:56:20;3.85;;;2.90;;
69087;SDS011;56190;43.562;5.036;2023-06-24T04:58:46;2.97;;;2.60;;
69087;SDS011;56190;43.562;5.036;2023-06-24T05:01:11;4.35;;;2.65;;
69087;SDS011;56190;43.562;5.036;2023-06-24T05:03:36;4.82;;;2.80;;
69087;SDS011;56190;43.562;5.036;2023-06-24T05:06:01;3.05;;;2.75;;
69087;SDS011;56190;43.562;5.036;2023-06-24T05:08:27;3.92;;;3.00;;
69087;SDS011;56190;43.562;5.036;2023-06-24T05:10:52;4.63;;;2.70;;
69087;SDS011;56190;43.562;5.036;2023-06-24T05:13:17;2.92;;;2.60;;
69087;SDS011;56190;43.562;5.036;2023-06-24T05:15:42;3.00;;;2.70;;
69087;SDS011;56190;43.562;5.036;2023-06-24T05:18:07;3.83;;;2.83;;
69087;SDS011;56190;43.562;5.036;2023-06-24T05:20:33;3.30;;;2.92;;
69087;SDS011;56190;43.562;5.036;2023-06-24T05:22:58;3.30;;;3.00;;
69087;SDS011;56190;43.562;5.036;2023-06-24T05:25:23;3.40;;;2.80;;
69087;SDS011;56190;43.562;5.036;2023-06-24T05:27:49;3.88;;;3.17;;
69087;SDS011;56190;43.562;5.036;2023-06-24T05:30:14;3.55;;;2.90;;
69087;SDS011;56190;43.562;5.036;2023-06-24T05:32:39;4.45;;;2.80;;
69087;SDS011;56190;43.562;5.036;2023-06-24T05:35:05;3.45;;;2.97;;
69087;SDS011;56190;43.562;5.036;2023-06-24T05:37:30;3.53;;;2.90;;
69087;SDS011;56190;43.562;5.036;2023-06-24T05:39:55;4.30;;;3.00;;
69087;SDS011;56190;43.562;5.036;2023-06-24T05:42:22;4.13;;;2.80;;
69087;SDS011;56190;43.562;5.036;2023-06-24T05:44:47;4.15;;;2.95;;
69087;SDS011;56190;43.562;5.036;2023-06-24T05:47:13;4.32;;;2.88;;
69087;SDS011;56190;43.562;5.036;2023-06-24T05:49:38;3.80;;;2.80;;
69087;SDS011;56190;43.562;5.036;2023-06-24T05:52:03;5.03;;;3.30;;
69087;SDS011;56190;43.562;5.036;2023-06-24T05:54:29;4.30;;;2.88;;
69087;SDS011;56190;43.562;5.036;2023-06-24T05:56:54;4.78;;;2.85;;
69087;SDS011;56190;43.562;5.036;2023-06-24T05:59:19;3.38;;;2.90;;
69087;SDS011;56190;43.562;5.036;2023-06-24T06:01:44;4.30;;;2.88;;
69087;SDS011;56190;43.562;5.036;2023-06-24T06:04:09;4.40;;;3.03;;
69087;SDS011;56190;43.562;5.036;2023-06-24T06:06:35;3.45;;;2.70;;
69087;SDS011;56190;43.562;5.036;2023-06-24T06:09:00;4.10;;;2.80;;
69087;SDS011;56190;43.562;5.036;2023-06-24T06:11:25;4.25;;;2.67;;
69087;SDS011;56190;43.562;5.036;2023-06-24T06:13:50;8.70;;;2.58;;
69087;SDS011;56190;43.562;5.036;2023-06-24T06:16:17;3.67;;;3.35;;
69087;SDS011;56190;43.562;5.036;2023-06-24T06:18:42;3.40;;;2.75;;
69087;SDS011;56190;43.562;5.036;2023-06-24T06:21:08;7.82;;;3.15;;
69087;SDS011;56190;43.562;5.036;2023-06-24T06:23:33;3.28;;;2.90;;
69087;SDS011;56190;43.562;5.036;2023-06-24T06:25:58;5.57;;;2.90;;
69087;SDS011;56190;43.562;5.036;2023-06-24T06:28:23;4.10;;;2.90;;
69087;SDS011;56190;43.562;5.036;2023-06-24T06:30:49;4.88;;;3.03;;
69087;SDS011;56190;43.562;5.036;2023-06-24T06:33:14;3.25;;;2.92;;
69087;SDS011;56190;43.562;5.036;2023-06-24T06:35:39;5.97;;;2.83;;
69087;SDS011;56190;43.562;5.036;2023-06-24T06:38:05;3.60;;;2.83;;
69087;SDS011;56190;43.562;5.036;2023-06-24T06:40:30;4.68;;;3.63;;
69087;SDS011;56190;43.562;5.036;2023-06-24T06:42:55;3.65;;;2.80;;
69087;SDS011;56190;43.562;5.036;2023-06-24T06:45:21;3.38;;;2.92;;
69087;SDS011;56190;43.562;5.036;2023-06-24T06:47:46;4.63;;;3.22;;
69087;SDS011;56190;43.562;5.036;2023-06-24T06:50:11;4.05;;;2.83;;
69087;SDS011;56190;43.562;5.036;2023-06-24T06:52:36;5.20;;;2.90;;
69087;SDS011;56190;43.562;5.036;2023-06-24T06:55:03;4.10;;;2.85;;
69087;SDS011;56190;43.562;5.036;2023-06-24T06:57:28;4.20;;;3.00;;
69087;SDS011;56190;43.562;5.036;2023-06-24T06:59:54;3.88;;;2.97;;
69087;SDS011;56190;43.562;5.036;2023-06-24T07:02:19;4.45;;;2.90;;
69087;SDS011;56190;43.562;5.036;2023-06-24T07:04:45;3.67;;;3.05;;
69087;SDS011;56190;43.562;5.036;2023-06-24T07:07:10;4.30;;;3.03;;
69087;SDS011;56190;43.562;5.036;2023-06-24T07:09:36;5.40;;;3.47;;
69087;SDS011;56190;43.562;5.036;2023-06-24T07:12:02;3.85;;;3.17;;
69087;SDS011;56190;43.562;5.036;2023-06-24T07:14:27;3.40;;;2.92;;
69087;SDS011;56190;43.562;5.036;2023-06-24T07:16:52;5.18;;;3.00;;
69087;SDS011;56190;43.562;5.036;2023-06-24T07:19:17;3.47;;;3.08;;
69087;SDS011;56190;43.562;5.036;2023-06-24T07:21:43;4.82;;;3.28;;
69087;SDS011;56190;43.562;5.036;2023-06-24T07:24:08;3.45;;;2.75;;
69087;SDS011;56190;43.562;5.036;2023-06-24T07:26:33;5.57;;;3.30;;
69087;SDS011;56190;43.562;5.036;2023-06-24T07:28:59;3.92;;;2.83;;
69087;SDS011;56190;43.562;5.036;2023-06-24T07:31:24;4.63;;;3.30;;
69087;SDS011;56190;43.562;5.036;2023-06-24T07:33:49;4.70;;;3.03;;
69087;SDS011;56190;43.562;5.036;2023-06-24T07:36:14;3.28;;;2.97;;
69087;SDS011;56190;43.562;5.036;2023-06-24T07:38:40;3.38;;;3.08;;
69087;SDS011;56190;43.562;5.036;2023-06-24T07:41:05;4.90;;;3.17;;
69087;SDS011;56190;43.562;5.036;2023-06-24T07:43:30;5.07;;;3.30;;
69087;SDS011;56190;43.562;5.036;2023-06-24T07:45:55;5.50;;;3.40;;
69087;SDS011;56190;43.562;5.036;2023-06-24T07:48:20;4.00;;;2.83;;
69087;SDS011;56190;43.562;5.036;2023-06-24T07:50:46;3.28;;;2.97;;
69087;SDS011;56190;43.562;5.036;2023-06-24T07:53:11;4.07;;;3.25;;
69087;SDS011;56190;43.562;5.036;2023-06-24T07:55:36;3.88;;;3.13;;
69087;SDS011;56190;43.562;5.036;2023-06-24T07:58:02;3.55;;;3.00;;
69087;SDS011;56190;43.562;5.036;2023-06-24T08:00:28;3.28;;;3.00;;
69087;SDS011;56190;43.562;5.036;2023-06-24T08:02:53;4.90;;;3.13;;
69087;SDS011;56190;43.562;5.036;2023-06-24T08:05:20;4.80;;;3.17;;
69087;SDS011;56190;43.562;5.036;2023-06-24T08:07:45;4.65;;;3.47;;
69087;SDS011;56190;43.562;5.036;2023-06-24T08:10:10;3.88;;;3.08;;
69087;SDS011;56190;43.562;5.036;2023-06-24T08:12:36;4.70;;;3.50;;
69087;SDS011;56190;43.562;5.036;2023-06-24T08:15:01;3.63;;;3.03;;
69087;SDS011;56190;43.562;5.036;2023-06-24T08:17:26;4.85;;;3.08;;
69087;SDS011;56190;43.562;5.036;2023-06-24T08:19:51;4.38;;;3.13;;
69087;SDS011;56190;43.562;5.036;2023-06-24T08:22:17;3.95;;;3.30;;
69087;SDS011;56190;43.562;5.036;2023-06-24T08:24:42;3.83;;;3.22;;
69087;SDS011;56190;43.562;5.036;2023-06-24T08:27:07;4.20;;;3.30;;
69087;SDS011;56190;43.562;5.036;2023-06-24T08:29:33;4.97;;;3.42;;
69087;SDS011;56190;43.562;5.036;2023-06-24T08:31:58;4.80;;;3.17;;
69087;SDS011;56190;43.562;5.036;2023-06-24T08:34:24;3.40;;;3.10;;
69087;SDS011;56190;43.562;5.036;2023-06-24T08:36:49;3.72;;;3.15;;
69087;SDS011;56190;43.562;5.036;2023-06-24T08:39:14;5.43;;;3.28;;
69087;SDS011;56190;43.562;5.036;2023-06-24T08:41:39;5.65;;;3.40;;
69087;SDS011;56190;43.562;5.036;2023-06-24T08:44:05;4.47;;;3.38;;
69087;SDS011;56190;43.562;5.036;2023-06-24T08:46:30;4.72;;;3.00;;
69087;SDS011;56190;43.562;5.036;2023-06-24T08:49:01;3.67;;;3.30;;
69087;SDS011;56190;43.562;5.036;2023-06-24T08:51:27;3.80;;;3.23;;
69087;SDS011;56190;43.562;5.036;2023-06-24T08:53:54;4.53;;;3.45;;
69087;SDS011;56190;43.562;5.036;2023-06-24T08:56:20;5.20;;;3.78;;
69087;SDS011;56190;43.562;5.036;2023-06-24T08:58:45;5.70;;;3.67;;
69087;SDS011;56190;43.562;5.036;2023-06-24T09:01:11;3.47;;;3.17;;
69087;SDS011;56190;43.562;5.036;2023-06-24T09:03:36;4.75;;;3.20;;
69087;SDS011;56190;43.562;5.036;2023-06-24T09:06:01;4.20;;;3.28;;
69087;SDS011;56190;43.562;5.036;2023-06-24T09:08:27;4.35;;;3.40;;
69087;SDS011;56190;43.562;5.036;2023-06-24T09:10:52;4.05;;;3.55;;
69087;SDS011;56190;43.562;5.036;2023-06-24T09:13:18;5.75;;;3.30;;
69087;SDS011;56190;43.562;5.036;2023-06-24T09:15:43;4.22;;;3.40;;
69087;SDS011;56190;43.562;5.036;2023-06-24T09:18:09;6.28;;;3.50;;
69087;SDS011;56190;43.562;5.036;2023-06-24T09:20:35;3.47;;;3.00;;
69087;SDS011;56190;43.562;5.036;2023-06-24T09:23:04;3.83;;;3.30;;
69087;SDS011;56190;43.562;5.036;2023-06-24T09:25:30;5.60;;;3.50;;
69087;SDS011;56190;43.562;5.036;2023-06-24T09:27:59;4.60;;;3.42;;
69087;SDS011;56190;43.562;5.036;2023-06-24T09:30:25;4.55;;;3.50;;
69087;SDS011;56190;43.562;5.036;2023-06-24T09:32:51;5.60;;;3.35;;
69087;SDS011;56190;43.562;5.036;2023-06-24T09:35:20;5.05;;;3.40;;
69087;SDS011;56190;43.562;5.036;2023-06-24T09:37:52;4.68;;;3.70;;
69087;SDS011;56190;43.562;5.036;2023-06-24T09:40:18;5.57;;;3.95;;
69087;SDS011;56190;43.562;5.036;2023-06-24T09:42:56;7.32;;;3.85;;
69087;SDS011;56190;43.562;5.036;2023-06-24T09:45:26;5.55;;;4.00;;
69087;SDS011;56190;43.562;5.036;2023-06-24T09:47:52;4.90;;;3.70;;
69087;SDS011;56190;43.562;5.036;2023-06-24T09:50:17;4.43;;;3.97;;
69087;SDS011;56190;43.562;5.036;2023-06-24T09:52:44;4.00;;;3.63;;
69087;SDS011;56190;43.562;5.036;2023-06-24T09:55:09;5.35;;;3.85;;
69087;SDS011;56190;43.562;5.036;2023-06-24T09:57:35;7.60;;;4.18;;
69087;SDS011;56190;43.562;5.036;2023-06-24T10:00:00;5.53;;;3.70;;
69087;SDS011;56190;43.562;5.036;2023-06-24T10:02:28;4.28;;;3.47;;
69087;SDS011;56190;43.562;5.036;2023-06-24T10:04:54;4.88;;;3.75;;
69087;SDS011;56190;43.562;5.036;2023-06-24T10:07:19;4.22;;;3.70;;
69087;SDS011;56190;43.562;5.036;2023-06-24T10:09:44;5.40;;;4.03;;
69087;SDS011;56190;43.562;5.036;2023-06-24T10:12:10;5.43;;;3.90;;
69087;SDS011;56190;43.562;5.036;2023-06-24T10:14:36;4.05;;;3.65;;
69087;SDS011;56190;43.562;5.036;2023-06-24T10:17:02;4.43;;;3.78;;
69087;SDS011;56190;43.562;5.036;2023-06-24T10:19:27;4.65;;;3.80;;
69087;SDS011;56190;43.562;5.036;2023-06-24T10:22:01;5.00;;;4.15;;
69087;SDS011;56190;43.562;5.036;2023-06-24T10:24:28;7.65;;;4.00;;
69087;SDS011;56190;43.562;5.036;2023-06-24T10:26:53;4.40;;;3.75;;
69087;SDS011;56190;43.562;5.036;2023-06-24T10:29:18;7.68;;;4.07;;
69087;SDS011;56190;43.562;5.036;2023-06-24T10:31:56;4.82;;;3.40;;
69087;SDS011;56190;43.562;5.036;2023-06-24T10:36:58;4.80;;;3.85;;
69087;SDS011;56190;43.562;5.036;2023-06-24T10:44:48;5.28;;;4.22;;
69087;SDS011;56190;43.562;5.036;2023-06-24T10:47:13;5.47;;;4.18;;
69087;SDS011;56190;43.562;5.036;2023-06-24T10:49:39;5.05;;;4.00;;
69087;SDS011;56190;43.562;5.036;2023-06-24T10:52:04;5.10;;;4.05;;
69087;SDS011;56190;43.562;5.036;2023-06-24T10:54:32;5.55;;;4.28;;
69087;SDS011;56190;43.562;5.036;2023-06-24T10:56:57;5.63;;;4.10;;
69087;SDS011;56190;43.562;5.036;2023-06-24T10:59:22;5.20;;;3.95;;
69087;SDS011;56190;43.562;5.036;2023-06-24T11:01:54;4.23;;;3.83;;
69087;SDS011;56190;43.562;5.036;2023-06-24T11:04:19;4.47;;;3.83;;
69087;SDS011;56190;43.562;5.036;2023-06-24T11:07:00;7.18;;;4.10;;
69087;SDS011;56190;43.562;5.036;2023-06-24T11:09:26;5.00;;;4.53;;
69087;SDS011;56190;43.562;5.036;2023-06-24T11:11:51;6.05;;;4.07;;
69087;SDS011;56190;43.562;5.036;2023-06-24T11:14:17;4.85;;;3.90;;
69087;SDS011;56190;43.562;5.036;2023-06-24T11:16:42;5.20;;;3.90;;
69087;SDS011;56190;43.562;5.036;2023-06-24T11:19:08;4.30;;;3.72;;
69087;SDS011;56190;43.562;5.036;2023-06-24T11:21:33;5.22;;;3.83;;
69087;SDS011;56190;43.562;5.036;2023-06-24T11:24:04;4.82;;;3.58;;
69087;SDS011;56190;43.562;5.036;2023-06-24T11:26:30;5.80;;;3.80;;
69087;SDS011;56190;43.562;5.036;2023-06-24T11:28:55;7.53;;;3.92;;
69087;SDS011;56190;43.562;5.036;2023-06-24T11:31:26;5.82;;;3.67;;
69087;SDS011;56190;43.562;5.036;2023-06-24T11:33:52;5.88;;;4.03;;
69087;SDS011;56190;43.562;5.036;2023-06-24T11:36:17;4.30;;;3.70;;
69087;SDS011;56190;43.562;5.036;2023-06-24T11:38:45;6.25;;;3.80;;
69087;SDS011;56190;43.562;5.036;2023-06-24T11:41:10;5.40;;;3.78;;
69087;SDS011;56190;43.562;5.036;2023-06-24T11:43:35;6.25;;;4.22;;
69087;SDS011;56190;43.562;5.036;2023-06-24T11:46:01;5.72;;;4.15;;
69087;SDS011;56190;43.562;5.036;2023-06-24T11:48:27;4.73;;;4.07;;
69087;SDS011;56190;43.562;5.036;2023-06-24T11:50:53;5.35;;;3.92;;
69087;SDS011;56190;43.562;5.036;2023-06-24T11:53:28;4.95;;;3.97;;
69087;SDS011;56190;43.562;5.036;2023-06-24T11:55:53;5.75;;;4.35;;
69087;SDS011;56190;43.562;5.036;2023-06-24T11:58:20;6.15;;;4.22;;
69087;SDS011;56190;43.562;5.036;2023-06-24T12:00:45;4.13;;;3.72;;
69087;SDS011;56190;43.562;5.036;2023-06-24T12:03:12;4.68;;;3.63;;
69087;SDS011;56190;43.562;5.036;2023-06-24T12:05:37;4.78;;;3.50;;
69087;SDS011;56190;43.562;5.036;2023-06-24T12:08:06;4.85;;;3.80;;
69087;SDS011;56190;43.562;5.036;2023-06-24T12:10:31;4.80;;;3.63;;
69087;SDS011;56190;43.562;5.036;2023-06-24T12:13:00;5.15;;;4.10;;
69087;SDS011;56190;43.562;5.036;2023-06-24T12:15:26;4.40;;;4.00;;
69087;SDS011;56190;43.562;5.036;2023-06-24T12:17:52;5.80;;;4.15;;
69087;SDS011;56190;43.562;5.036;2023-06-24T12:20:17;5.30;;;4.15;;
69087;SDS011;56190;43.562;5.036;2023-06-24T12:22:43;4.53;;;4.10;;
69087;SDS011;56190;43.562;5.036;2023-06-24T12:25:09;6.18;;;4.30;;
69087;SDS011;56190;43.562;5.036;2023-06-24T12:27:34;7.05;;;4.50;;
69087;SDS011;56190;43.562;5.036;2023-06-24T12:30:00;4.68;;;4.18;;
69087;SDS011;56190;43.562;5.036;2023-06-24T12:32:25;5.28;;;3.90;;
69087;SDS011;56190;43.562;5.036;2023-06-24T12:34:51;4.97;;;4.22;;
69087;SDS011;56190;43.562;5.036;2023-06-24T12:37:16;6.07;;;4.07;;
69087;SDS011;56190;43.562;5.036;2023-06-24T12:39:41;4.97;;;3.70;;
69087;SDS011;56190;43.562;5.036;2023-06-24T12:42:06;6.23;;;4.17;;
69087;SDS011;56190;43.562;5.036;2023-06-24T12:44:32;5.85;;;4.22;;
69087;SDS011;56190;43.562;5.036;2023-06-24T12:46:57;5.63;;;3.83;;
69087;SDS011;56190;43.562;5.036;2023-06-24T12:49:22;6.23;;;3.90;;
69087;SDS011;56190;43.562;5.036;2023-06-24T12:51:47;5.20;;;4.30;;
69087;SDS011;56190;43.562;5.036;2023-06-24T12:54:13;6.20;;;3.90;;
69087;SDS011;56190;43.562;5.036;2023-06-24T12:56:38;5.37;;;4.23;;
69087;SDS011;56190;43.562;5.036;2023-06-24T12:59:03;4.53;;;4.07;;
69087;SDS011;56190;43.562;5.036;2023-06-24T13:01:28;6.30;;;4.20;;
69087;SDS011;56190;43.562;5.036;2023-06-24T13:03:54;6.10;;;4.10;;
69087;SDS011;56190;43.562;5.036;2023-06-24T13:06:19;6.07;;;4.15;;
69087;SDS011;56190;43.562;5.036;2023-06-24T13:08:44;6.13;;;3.80;;
69087;SDS011;56190;43.562;5.036;2023-06-24T13:11:09;7.32;;;4.05;;
69087;SDS011;56190;43.562;5.036;2023-06-24T13:13:35;7.77;;;3.90;;
69087;SDS011;56190;43.562;5.036;2023-06-24T13:16:00;6.15;;;4.13;;
69087;SDS011;56190;43.562;5.036;2023-06-24T13:18:26;6.78;;;3.95;;
69087;SDS011;56190;43.562;5.036;2023-06-24T13:20:51;5.87;;;3.77;;
69087;SDS011;56190;43.562;5.036;2023-06-24T13:23:16;8.20;;;3.93;;
69087;SDS011;56190;43.562;5.036;2023-06-24T13:25:41;5.85;;;4.00;;
69087;SDS011;56190;43.562;5.036;2023-06-24T13:28:07;5.85;;;4.05;;
69087;SDS011;56190;43.562;5.036;2023-06-24T13:30:32;5.25;;;4.13;;
69087;SDS011;56190;43.562;5.036;2023-06-24T13:32:57;4.13;;;3.72;;
69087;SDS011;56190;43.562;5.036;2023-06-24T13:35:23;5.88;;;4.05;;
69087;SDS011;56190;43.562;5.036;2023-06-24T13:37:48;5.72;;;3.95;;
69087;SDS011;56190;43.562;5.036;2023-06-24T13:40:13;6.38;;;4.00;;
69087;SDS011;56190;43.562;5.036;2023-06-24T13:42:38;7.28;;;4.32;;
69087;SDS011;56190;43.562;5.036;2023-06-24T13:45:04;6.68;;;4.25;;
69087;SDS011;56190;43.562;5.036;2023-06-24T13:47:29;7.93;;;4.20;;
69087;SDS011;56190;43.562;5.036;2023-06-24T13:49:55;5.70;;;4.25;;
69087;SDS011;56190;43.562;5.036;2023-06-24T13:52:20;6.57;;;4.10;;
69087;SDS011;56190;43.562;5.036;2023-06-24T13:54:46;5.50;;;4.32;;
69087;SDS011;56190;43.562;5.036;2023-06-24T13:57:11;6.10;;;4.18;;
69087;SDS011;56190;43.562;5.036;2023-06-24T13:59:37;7.13;;;4.20;;
69087;SDS011;56190;43.562;5.036;2023-06-24T14:02:02;8.00;;;4.20;;
69087;SDS011;56190;43.562;5.036;2023-06-24T14:04:27;6.22;;;3.78;;
69087;SDS011;56190;43.562;5.036;2023-06-24T14:06:52;8.15;;;4.10;;
69087;SDS011;56190;43.562;5.036;2023-06-24T14:09:18;5.28;;;4.18;;
69087;SDS011;56190;43.562;5.036;2023-06-24T14:11:44;5.68;;;4.00;;
69087;SDS011;56190;43.562;5.036;2023-06-24T14:14:09;6.85;;;4.30;;
69087;SDS011;56190;43.562;5.036;2023-06-24T14:16:34;5.97;;;4.20;;
69087;SDS011;56190;43.562;5.036;2023-06-24T14:18:59;6.37;;;4.50;;
69087;SDS011;56190;43.562;5.036;2023-06-24T14:21:25;7.22;;;4.18;;
69087;SDS011;56190;43.562;5.036;2023-06-24T14:23:50;5.55;;;4.10;;
69087;SDS011;56190;43.562;5.036;2023-06-24T14:26:15;5.88;;;4.22;;
69087;SDS011;56190;43.562;5.036;2023-06-24T14:28:41;5.07;;;4.03;;
69087;SDS011;56190;43.562;5.036;2023-06-24T14:31:06;5.85;;;4.10;;
69087;SDS011;56190;43.562;5.036;2023-06-24T14:33:31;8.30;;;4.47;;
69087;SDS011;56190;43.562;5.036;2023-06-24T14:35:56;6.27;;;4.43;;
69087;SDS011;56190;43.562;5.036;2023-06-24T14:38:21;8.32;;;4.50;;
69087;SDS011;56190;43.562;5.036;2023-06-24T14:40:47;6.88;;;4.60;;
69087;SDS011;56190;43.562;5.036;2023-06-24T14:43:12;5.20;;;4.30;;
69087;SDS011;56190;43.562;5.036;2023-06-24T14:45:38;5.32;;;4.38;;
69087;SDS011;56190;43.562;5.036;2023-06-24T14:48:03;7.50;;;4.28;;
69087;SDS011;56190;43.562;5.036;2023-06-24T14:50:28;5.10;;;4.00;;
69087;SDS011;56190;43.562;5.036;2023-06-24T14:52:53;4.50;;;3.60;;
69087;SDS011;56190;43.562;5.036;2023-06-24T14:55:19;7.30;;;4.20;;
69087;SDS011;56190;43.562;5.036;2023-06-24T14:57:44;4.97;;;3.85;;
69087;SDS011;56190;43.562;5.036;2023-06-24T15:00:09;5.82;;;3.95;;